Terminal Aerodrome Forecast
Issued by NWS Wilmington, NC

Home | Current Version | Previous Version | Text Only | Print | Product List | Glossary On
Versions: 1 2 3 4 5 6 7 8 9 10 11 12 13 14 15 16 17
000
FTUS42 KILM 312329
TAFFLO
TAF
KFLO 312329Z 0100/0124 35007KT P6SM FEW050
     FM010600 VRB02KT 5SM BR SCT015
     FM010900 00000KT 2SM BR SCT004
      TEMPO 0109/0112 1/2SM FG BKN003
     FM011300 33004KT P6SM BKN060
     FM011900 22005KT P6SM SCT100 SCT250=

USA.gov is the U.S. government's official web portal to all federal, state and local government web resources and services.